createdAt,value
2023-11-24T00:06:03.334Z,4.47
2023-11-24T00:16:04.772Z,5.40
2023-11-24T00:26:06.144Z,6.88
2023-11-24T00:36:07.581Z,6.45
2023-11-24T00:46:08.922Z,6.20
2023-11-24T00:56:10.446Z,6.15
2023-11-24T01:06:11.750Z,5.55
2023-11-24T01:16:13.048Z,5.03
2023-11-24T01:26:14.326Z,5.30
2023-11-24T01:36:15.616Z,3.63
2023-11-24T01:46:17.112Z,4.22
2023-11-24T01:56:18.461Z,4.15
2023-11-24T02:06:19.729Z,3.92
2023-11-24T02:16:21.153Z,5.03
2023-11-24T02:26:22.503Z,3.90
2023-11-24T02:36:23.784Z,4.68
2023-11-24T02:46:25.161Z,3.25
2023-11-24T02:56:26.480Z,3.10
2023-11-24T03:06:27.813Z,2.47
2023-11-24T03:16:29.226Z,2.35
2023-11-24T03:26:30.513Z,2.67
2023-11-24T03:36:31.826Z,2.13
2023-11-24T03:46:33.192Z,2.25
2023-11-24T03:56:34.552Z,2.42
2023-11-24T04:06:35.944Z,2.05
2023-11-24T04:16:37.396Z,2.05
2023-11-24T04:26:38.727Z,1.58
2023-11-24T04:36:40.123Z,2.22
2023-11-24T04:46:41.501Z,1.90
2023-11-24T04:56:42.849Z,2.55
2023-11-24T05:06:44.161Z,3.40
2023-11-24T05:16:45.542Z,3.47
2023-11-24T05:26:48.690Z,3.28
2023-11-24T05:36:51.245Z,2.35
2023-11-24T05:46:52.879Z,3.17
2023-11-24T05:56:54.222Z,2.60
2023-11-24T06:06:59.167Z,3.25
2023-11-24T06:17:00.873Z,2.55
2023-11-24T06:27:02.217Z,2.88
2023-11-24T06:37:03.497Z,2.83
2023-11-24T06:47:04.868Z,2.38
2023-11-24T06:57:06.198Z,1.73
2023-11-24T07:07:07.529Z,2.20
2023-11-24T07:17:08.852Z,1.83
2023-11-24T07:27:10.173Z,1.77
2023-11-24T07:37:11.489Z,3.00
2023-11-24T07:47:12.771Z,1.20
2023-11-24T07:57:14.064Z,2.30
2023-11-24T08:07:15.448Z,3.08
2023-11-24T08:17:16.789Z,1.92
2023-11-24T08:27:18.082Z,3.35
2023-11-24T08:37:19.447Z,3.50
2023-11-24T08:47:20.785Z,2.33
2023-11-24T08:57:22.099Z,2.28
2023-11-24T09:07:23.417Z,2.72
2023-11-24T09:17:24.734Z,1.65
2023-11-24T09:27:25.986Z,1.88
2023-11-24T09:37:30.686Z,1.67
2023-11-24T09:47:40.578Z,2.72
2023-11-24T09:57:48.697Z,6.68
2023-11-24T10:07:57.806Z,3.67
2023-11-24T10:18:05.772Z,2.92
2023-11-24T10:28:13.642Z,1.98
2023-11-24T10:38:21.407Z,3.03
2023-11-24T10:48:28.701Z,4.88
2023-11-24T10:58:34.516Z,2.30
2023-11-24T11:08:41.258Z,2.80
2023-11-24T11:18:52.731Z,2.72
2023-11-24T11:29:01.690Z,3.88
2023-11-24T11:39:09.704Z,2.10
2023-11-24T11:49:18.631Z,3.92
2023-11-24T11:59:26.607Z,2.00
2023-11-24T12:09:28.272Z,2.45
2023-11-24T12:19:29.929Z,2.80
2023-11-24T12:29:31.251Z,2.55
2023-11-24T12:39:32.549Z,1.85
2023-11-24T12:49:34.947Z,2.38
2023-11-24T12:59:36.258Z,1.67
2023-11-24T13:09:37.515Z,2.78
2023-11-24T13:19:38.771Z,1.70
2023-11-24T13:29:40.068Z,3.15
2023-11-24T13:39:41.339Z,3.35
2023-11-24T13:49:43.378Z,1.90
2023-11-24T13:59:45.126Z,2.60
2023-11-24T14:10:08.938Z,2.17
2023-11-24T14:20:17.574Z,1.85
2023-11-24T14:30:19.446Z,2.73
2023-11-24T14:50:49.474Z,3.17
2023-11-24T15:00:50.842Z,2.33
2023-11-24T15:10:52.168Z,2.38
2023-11-24T15:20:53.521Z,2.63
2023-11-24T15:30:54.895Z,2.72
2023-11-24T15:40:56.310Z,3.33
2023-11-24T15:50:57.623Z,2.55
2023-11-24T16:00:58.971Z,2.83
2023-11-24T16:11:00.366Z,2.58
2023-11-24T16:21:01.711Z,2.70
2023-11-24T16:31:02.995Z,1.85
2023-11-24T16:41:04.390Z,2.42
2023-11-24T16:51:05.716Z,1.83
2023-11-24T17:01:07.046Z,2.13
2023-11-24T17:11:08.367Z,1.42
2023-11-24T17:21:09.710Z,2.92
2023-11-24T17:31:11.116Z,2.75
2023-11-24T17:41:12.433Z,2.70
2023-11-24T17:51:13.701Z,2.05
2023-11-24T18:01:15.063Z,2.92
2023-11-24T18:11:16.405Z,3.38
2023-11-24T18:21:17.697Z,3.38
2023-11-24T18:31:19.131Z,2.92
2023-11-24T18:41:20.615Z,3.45
2023-11-24T18:51:21.947Z,3.08
2023-11-24T19:01:23.337Z,2.53
2023-11-24T19:11:24.677Z,2.15
2023-11-24T19:21:25.974Z,4.03
2023-11-24T19:31:27.329Z,2.55
2023-11-24T19:41:28.826Z,3.38
2023-11-24T19:51:30.172Z,3.13
2023-11-24T20:01:31.646Z,3.47
2023-11-24T20:11:33.083Z,4.07
2023-11-24T20:21:34.409Z,2.63
2023-11-24T20:31:35.766Z,2.83
2023-11-24T20:41:37.150Z,3.25
2023-11-24T20:51:38.488Z,2.10
2023-11-24T21:01:39.869Z,2.83
2023-11-24T21:11:42.306Z,2.20
2023-11-24T21:21:43.989Z,2.83
2023-11-24T21:31:45.460Z,2.92
2023-11-24T21:41:46.886Z,2.90
2023-11-24T21:51:48.180Z,2.53
2023-11-24T22:01:49.670Z,3.67
2023-11-24T22:11:51.061Z,3.47
2023-11-24T22:21:52.330Z,3.05
2023-11-24T22:31:53.668Z,2.55
2023-11-24T22:41:54.954Z,2.90
2023-11-24T22:51:56.422Z,3.33
2023-11-24T23:01:57.901Z,3.08
2023-11-24T23:11:59.350Z,2.80
2023-11-24T23:22:00.729Z,3.40
2023-11-24T23:32:02.185Z,3.33
2023-11-24T23:42:03.489Z,3.80
2023-11-24T23:52:04.844Z,4.03
